createdAt,value
2018-03-09T00:00:21.019Z,0
2018-03-09T00:01:29.848Z,0
2018-03-09T00:02:38.775Z,0
2018-03-09T00:03:47.600Z,0
2018-03-09T00:04:56.429Z,0
2018-03-09T00:06:05.256Z,0
2018-03-09T00:07:14.082Z,0
2018-03-09T00:08:23.467Z,0
2018-03-09T00:09:32.296Z,0
2018-03-09T00:10:41.129Z,0
2018-03-09T00:11:49.954Z,0
2018-03-09T00:12:58.781Z,0
2018-03-09T00:14:07.812Z,0
2018-03-09T00:15:16.635Z,0
2018-03-09T00:16:25.463Z,0
2018-03-09T00:17:34.291Z,0
2018-03-09T00:18:43.401Z,0
2018-03-09T00:19:52.654Z,0
2018-03-09T00:21:01.482Z,0
2018-03-09T00:22:10.311Z,0
2018-03-09T00:23:19.140Z,0
2018-03-09T00:24:27.979Z,0
2018-03-09T00:25:37.183Z,0
2018-03-09T00:26:46.290Z,0
2018-03-09T00:27:55.121Z,0
2018-03-09T00:29:03.947Z,0
2018-03-09T00:30:12.778Z,0
2018-03-09T00:31:21.605Z,0
2018-03-09T00:32:30.432Z,0
2018-03-09T00:33:39.260Z,0
2018-03-09T00:34:48.086Z,0
2018-03-09T00:35:56.915Z,0
2018-03-09T00:37:05.744Z,0
2018-03-09T00:38:14.578Z,0
2018-03-09T00:39:23.398Z,0
2018-03-09T00:40:32.225Z,0
2018-03-09T00:41:41.053Z,0
2018-03-09T00:42:49.881Z,0
2018-03-09T00:43:58.709Z,0
2018-03-09T00:45:07.816Z,0
2018-03-09T00:46:16.646Z,0
2018-03-09T00:47:25.472Z,0
2018-03-09T00:48:34.299Z,0
2018-03-09T00:49:43.129Z,0
2018-03-09T00:50:52.231Z,0
2018-03-09T00:52:01.064Z,0
2018-03-09T00:53:09.885Z,0
2018-03-09T00:54:18.763Z,0
2018-03-09T00:55:27.587Z,0
2018-03-09T00:56:36.418Z,0
2018-03-09T00:57:45.248Z,0
2018-03-09T00:58:54.073Z,0
2018-03-09T01:00:03.213Z,0
2018-03-09T01:01:12.007Z,0
2018-03-09T01:02:20.833Z,0
2018-03-09T01:03:29.660Z,0
2018-03-09T01:04:38.489Z,0
2018-03-09T01:05:47.316Z,0
2018-03-09T01:06:56.144Z,0
2018-03-09T01:08:04.973Z,0
2018-03-09T01:09:13.800Z,0
2018-03-09T01:10:22.624Z,0
2018-03-09T01:11:31.503Z,0
2018-03-09T01:12:40.330Z,0
2018-03-09T01:13:49.439Z,0
2018-03-09T01:14:58.822Z,0
2018-03-09T01:16:07.649Z,0
2018-03-09T01:17:16.777Z,0
2018-03-09T01:18:25.603Z,0
2018-03-09T01:19:34.431Z,0
2018-03-09T01:20:43.264Z,0
2018-03-09T01:21:52.088Z,0
2018-03-09T01:23:01.203Z,0
2018-03-09T01:24:10.274Z,0
2018-03-09T01:25:19.104Z,0
2018-03-09T01:26:28.207Z,0
2018-03-09T01:27:37.033Z,0
2018-03-09T01:28:45.864Z,0
2018-03-09T01:29:54.692Z,0
2018-03-09T01:31:03.557Z,0
2018-03-09T01:32:12.664Z,0
2018-03-09T01:33:21.489Z,0
2018-03-09T01:34:30.473Z,0
2018-03-09T01:35:39.312Z,0
2018-03-09T01:36:48.135Z,0
2018-03-09T01:37:56.962Z,0
2018-03-09T01:39:05.788Z,0
2018-03-09T01:40:14.614Z,0
2018-03-09T01:41:23.440Z,0
2018-03-09T01:42:32.276Z,0
2018-03-09T01:43:41.377Z,0
2018-03-09T01:44:50.480Z,0
2018-03-09T01:45:59.308Z,0
2018-03-09T01:47:08.135Z,0
2018-03-09T01:48:16.963Z,0
2018-03-09T01:49:25.790Z,0
2018-03-09T01:50:34.618Z,0
2018-03-09T01:51:43.745Z,0
2018-03-09T01:52:52.851Z,0
2018-03-09T01:54:01.676Z,0
2018-03-09T01:55:10.505Z,0
2018-03-09T01:56:19.608Z,0
2018-03-09T01:57:28.536Z,0
2018-03-09T01:58:37.364Z,0
2018-03-09T01:59:46.190Z,0
2018-03-09T02:00:55.020Z,0
2018-03-09T02:02:03.849Z,0
2018-03-09T02:03:12.728Z,0
2018-03-09T02:04:21.834Z,0
2018-03-09T02:05:30.664Z,0
2018-03-09T02:06:39.770Z,0
2018-03-09T02:07:48.598Z,0
2018-03-09T02:08:57.628Z,0
2018-03-09T02:10:06.456Z,0
2018-03-09T02:11:15.285Z,0
2018-03-09T02:12:24.114Z,0
2018-03-09T02:13:32.942Z,0
2018-03-09T02:14:42.255Z,0
2018-03-09T02:15:51.091Z,0
2018-03-09T02:16:59.923Z,0
2018-03-09T02:18:08.747Z,0
2018-03-09T02:19:17.577Z,0
2018-03-09T02:20:26.881Z,0
2018-03-09T02:21:35.983Z,0
2018-03-09T02:22:44.810Z,0
2018-03-09T02:23:53.645Z,0
2018-03-09T02:25:02.471Z,0
2018-03-09T02:26:11.455Z,0
2018-03-09T02:27:20.561Z,0
2018-03-09T02:28:29.385Z,0
2018-03-09T02:29:38.214Z,0
2018-03-09T02:30:47.042Z,0
2018-03-09T02:31:55.918Z,0
2018-03-09T02:33:04.746Z,0
2018-03-09T02:34:13.578Z,0
2018-03-09T02:35:22.404Z,0
2018-03-09T02:36:31.232Z,0
2018-03-09T02:37:40.061Z,0
2018-03-09T02:38:48.888Z,0
2018-03-09T02:39:57.723Z,0
2018-03-09T02:41:06.550Z,0
2018-03-09T02:42:15.387Z,0
2018-03-09T02:43:24.269Z,0
2018-03-09T02:44:33.376Z,0
2018-03-09T02:45:42.206Z,0
2018-03-09T02:46:51.040Z,0
2018-03-09T02:47:59.874Z,0
2018-03-09T02:49:08.703Z,0
2018-03-09T02:50:17.808Z,0
2018-03-09T02:51:26.636Z,0
2018-03-09T02:52:35.482Z,0
2018-03-09T02:53:44.312Z,0
2018-03-09T02:54:53.141Z,0
2018-03-09T02:56:01.970Z,0
2018-03-09T02:57:10.801Z,0
2018-03-09T02:58:19.631Z,0
2018-03-09T02:59:28.734Z,0
2018-03-09T03:00:37.660Z,0
2018-03-09T03:01:46.488Z,0
2018-03-09T03:02:55.318Z,0
2018-03-09T03:04:04.150Z,0
2018-03-09T03:05:12.984Z,0
2018-03-09T03:06:21.912Z,0
2018-03-09T03:07:30.740Z,0
2018-03-09T03:08:39.570Z,0
2018-03-09T03:09:48.397Z,0
2018-03-09T03:10:57.225Z,0
2018-03-09T03:12:06.629Z,0
2018-03-09T03:13:15.458Z,0
2018-03-09T03:14:24.284Z,0
2018-03-09T03:15:33.112Z,0
2018-03-09T03:16:41.940Z,0
2018-03-09T03:17:51.070Z,0
2018-03-09T03:19:00.178Z,0
2018-03-09T03:20:09.009Z,0
2018-03-09T03:21:17.893Z,0
2018-03-09T03:22:27.013Z,0
2018-03-09T03:23:35.924Z,0
2018-03-09T03:24:44.753Z,0
2018-03-09T03:25:53.582Z,0
2018-03-09T03:27:02.688Z,0
2018-03-09T03:28:11.517Z,0
2018-03-09T03:29:20.594Z,0
2018-03-09T03:30:29.427Z,0
2018-03-09T03:31:38.255Z,0
2018-03-09T03:32:47.360Z,0
2018-03-09T03:33:56.464Z,0
2018-03-09T03:35:05.292Z,0
2018-03-09T03:36:14.121Z,0
2018-03-09T03:37:22.948Z,0
2018-03-09T03:38:31.775Z,0
2018-03-09T03:39:40.602Z,0
2018-03-09T03:40:49.433Z,0
2018-03-09T03:41:58.261Z,0
2018-03-09T03:43:07.092Z,0
2018-03-09T03:44:16.198Z,0
2018-03-09T03:45:25.025Z,0
2018-03-09T03:46:33.904Z,0
2018-03-09T03:47:42.731Z,0
2018-03-09T03:48:51.562Z,0
2018-03-09T03:50:00.389Z,0
2018-03-09T03:51:09.216Z,0
2018-03-09T03:52:18.045Z,0
2018-03-09T03:53:26.878Z,0
2018-03-09T03:54:35.707Z,0
2018-03-09T03:55:44.539Z,0
2018-03-09T03:56:53.365Z,0
2018-03-09T03:58:02.445Z,0
2018-03-09T03:59:11.274Z,0
2018-03-09T04:00:20.102Z,0
2018-03-09T04:01:28.932Z,0
2018-03-09T04:02:38.037Z,0
2018-03-09T04:03:47.288Z,0
2018-03-09T04:04:56.116Z,0
2018-03-09T04:06:04.949Z,0
2018-03-09T04:07:14.052Z,0
2018-03-09T04:08:22.880Z,0
2018-03-09T04:09:31.760Z,0
2018-03-09T04:10:40.586Z,0
2018-03-09T04:11:49.413Z,0
2018-03-09T04:12:58.239Z,0
2018-03-09T04:14:07.068Z,0
2018-03-09T04:15:16.174Z,0
2018-03-09T04:16:25.001Z,0
2018-03-09T04:17:33.829Z,0
2018-03-09T04:18:42.657Z,0
2018-03-09T04:19:51.776Z,0
2018-03-09T04:21:01.176Z,0
2018-03-09T04:22:10.005Z,0
2018-03-09T04:23:19.110Z,0
2018-03-09T04:24:27.939Z,0
2018-03-09T04:25:36.766Z,0
2018-03-09T04:26:45.594Z,0
2018-03-09T04:27:54.423Z,0
2018-03-09T04:29:03.256Z,0
2018-03-09T04:30:12.079Z,0
2018-03-09T04:31:20.907Z,0
2018-03-09T04:32:29.785Z,0
2018-03-09T04:33:38.613Z,0
2018-03-09T04:34:47.444Z,0
2018-03-09T04:35:56.270Z,0
2018-03-09T04:37:05.098Z,0
2018-03-09T04:38:14.076Z,0
2018-03-09T04:39:22.905Z,0
2018-03-09T04:40:31.732Z,0
2018-03-09T04:41:40.563Z,0
2018-03-09T04:42:49.392Z,0
2018-03-09T04:43:58.322Z,0
2018-03-09T04:45:07.149Z,0
2018-03-09T04:46:15.978Z,0
2018-03-09T04:47:24.805Z,0
2018-03-09T04:48:34.200Z,0
2018-03-09T04:49:43.031Z,0
2018-03-09T04:50:51.860Z,0
2018-03-09T04:52:00.688Z,0
2018-03-09T04:53:09.516Z,0
2018-03-09T04:54:18.347Z,0
2018-03-09T04:55:27.174Z,0
2018-03-09T04:56:36.000Z,0
2018-03-09T04:57:44.828Z,0
2018-03-09T04:58:53.657Z,0
2018-03-09T05:00:02.487Z,0
2018-03-09T05:01:11.787Z,0
2018-03-09T05:02:20.616Z,0
2018-03-09T05:03:29.445Z,0
2018-03-09T05:04:38.273Z,0
2018-03-09T05:05:47.102Z,0
2018-03-09T05:06:56.232Z,0
2018-03-09T05:08:05.061Z,0
2018-03-09T05:09:14.173Z,0
2018-03-09T05:10:23.031Z,0
2018-03-09T05:11:32.115Z,0
2018-03-09T05:12:40.995Z,0
2018-03-09T05:13:49.823Z,0
2018-03-09T05:14:58.659Z,0
2018-03-09T05:16:07.484Z,0
2018-03-09T05:17:16.312Z,0
2018-03-09T05:18:25.143Z,0
2018-03-09T05:19:33.973Z,0
2018-03-09T05:20:43.074Z,0
2018-03-09T05:21:51.900Z,0
2018-03-09T05:23:00.729Z,0
2018-03-09T05:24:09.762Z,0
2018-03-09T05:25:18.589Z,0
2018-03-09T05:26:27.418Z,0
2018-03-09T05:27:36.248Z,0
2018-03-09T05:28:45.077Z,0
2018-03-09T05:29:54.056Z,0
2018-03-09T05:31:03.182Z,0
2018-03-09T05:32:12.843Z,0
2018-03-09T05:33:21.679Z,0
2018-03-09T05:34:30.510Z,0
2018-03-09T05:35:39.348Z,0
2018-03-09T05:36:48.218Z,0
2018-03-09T05:37:57.005Z,0
2018-03-09T05:39:06.083Z,0
2018-03-09T05:40:14.911Z,0
2018-03-09T05:41:24.067Z,0
2018-03-09T05:42:32.896Z,0
2018-03-09T05:43:41.725Z,0
2018-03-09T05:44:50.555Z,0
2018-03-09T05:45:59.387Z,0
2018-03-09T05:47:08.218Z,0
2018-03-09T05:48:17.046Z,0
2018-03-09T05:49:25.877Z,0
2018-03-09T05:50:34.707Z,0
2018-03-09T05:51:43.535Z,0
2018-03-09T05:52:52.368Z,5
2018-03-09T05:54:01.195Z,5
2018-03-09T05:55:10.023Z,5
2018-03-09T05:56:18.853Z,5
2018-03-09T05:57:27.683Z,5
2018-03-09T05:58:36.839Z,5
2018-03-09T05:59:45.667Z,5
2018-03-09T06:00:54.499Z,5
2018-03-09T06:02:03.328Z,5
2018-03-09T06:03:12.435Z,5
2018-03-09T06:04:21.569Z,10
2018-03-09T06:05:30.393Z,10
2018-03-09T06:06:39.226Z,10
2018-03-09T06:07:48.056Z,10
2018-03-09T06:08:57.162Z,10
2018-03-09T06:10:06.291Z,10
2018-03-09T06:11:15.118Z,15
2018-03-09T06:12:24.223Z,15
2018-03-09T06:13:33.053Z,15
2018-03-09T06:14:42.165Z,15
2018-03-09T06:15:50.992Z,20
2018-03-09T06:16:59.826Z,20
2018-03-09T06:18:08.652Z,20
2018-03-09T06:19:17.481Z,20
2018-03-09T06:20:26.311Z,25
2018-03-09T06:21:35.290Z,30
2018-03-09T06:22:44.401Z,30
2018-03-09T06:23:53.228Z,35
2018-03-09T06:25:02.331Z,30
2018-03-09T06:26:11.160Z,30
2018-03-09T06:27:20.418Z,35
2018-03-09T06:28:29.249Z,35
2018-03-09T06:29:38.081Z,40
2018-03-09T06:30:46.910Z,40
2018-03-09T06:31:55.739Z,45
2018-03-09T06:33:04.947Z,50
2018-03-09T06:34:13.778Z,50
2018-03-09T06:35:22.609Z,55
2018-03-09T06:36:31.715Z,55
2018-03-09T06:37:40.545Z,65
2018-03-09T06:38:49.377Z,65
2018-03-09T06:39:58.305Z,70
2018-03-09T06:41:07.132Z,70
2018-03-09T06:42:15.960Z,70
2018-03-09T06:43:24.790Z,75
2018-03-09T06:44:33.617Z,75
2018-03-09T06:45:42.447Z,80
2018-03-09T06:46:51.282Z,80
2018-03-09T06:48:00.106Z,80
2018-03-09T06:49:08.935Z,85
2018-03-09T06:50:17.916Z,85
2018-03-09T06:51:26.748Z,90
2018-03-09T06:52:35.576Z,90
2018-03-09T06:53:44.405Z,90
2018-03-09T06:54:53.235Z,95
2018-03-09T06:56:02.269Z,95
2018-03-09T06:57:11.103Z,100
2018-03-09T06:58:19.928Z,100
2018-03-09T06:59:28.759Z,95
2018-03-09T07:00:37.861Z,100
2018-03-09T07:01:46.992Z,100
2018-03-09T07:02:55.819Z,100
2018-03-09T07:04:04.929Z,105
2018-03-09T07:05:13.755Z,105
2018-03-09T07:06:22.586Z,110
2018-03-09T07:07:31.740Z,110
2018-03-09T07:08:40.569Z,110
2018-03-09T07:09:49.398Z,110
2018-03-09T07:10:58.233Z,115
2018-03-09T07:12:07.338Z,120
2018-03-09T07:13:16.692Z,120
2018-03-09T07:14:25.521Z,120
2018-03-09T07:15:34.352Z,120
2018-03-09T07:16:43.179Z,125
2018-03-09T07:17:52.009Z,125
2018-03-09T07:19:00.940Z,130
2018-03-09T07:20:09.771Z,130
2018-03-09T07:21:18.600Z,135
2018-03-09T07:22:27.429Z,135
2018-03-09T07:23:36.260Z,135
2018-03-09T07:24:45.090Z,140
2018-03-09T07:25:53.921Z,145
2018-03-09T07:27:02.804Z,145
2018-03-09T07:28:11.578Z,150
2018-03-09T07:29:20.408Z,150
2018-03-09T07:30:29.292Z,155
2018-03-09T07:31:38.145Z,155
2018-03-09T07:32:46.977Z,155
2018-03-09T07:33:56.386Z,160
2018-03-09T07:35:05.219Z,160
2018-03-09T07:36:14.424Z,165
2018-03-09T07:37:23.252Z,165
2018-03-09T07:38:32.082Z,170
2018-03-09T07:39:40.912Z,170
2018-03-09T07:40:49.744Z,175
2018-03-09T07:41:58.574Z,180
2018-03-09T07:43:07.404Z,180
2018-03-09T07:44:16.234Z,180
2018-03-09T07:45:25.066Z,180
2018-03-09T07:46:34.196Z,180
2018-03-09T07:47:43.229Z,185
2018-03-09T07:48:52.060Z,190
2018-03-09T07:50:01.168Z,190
2018-03-09T07:51:09.999Z,200
2018-03-09T07:52:18.832Z,195
2018-03-09T07:53:27.764Z,200
2018-03-09T07:54:36.601Z,200
2018-03-09T07:55:45.430Z,200
2018-03-09T07:56:54.538Z,200
2018-03-09T07:58:03.644Z,210
2018-03-09T07:59:12.791Z,210
2018-03-09T08:00:21.604Z,215
2018-03-09T08:01:30.434Z,220
2018-03-09T08:02:39.266Z,220
2018-03-09T08:03:48.098Z,225
2018-03-09T08:04:56.978Z,225
2018-03-09T08:06:05.807Z,230
2018-03-09T08:07:14.641Z,235
2018-03-09T08:08:23.750Z,230
2018-03-09T08:09:32.658Z,235
2018-03-09T08:10:41.800Z,235
2018-03-09T08:11:50.341Z,240
2018-03-09T08:12:59.174Z,245
2018-03-09T08:14:08.006Z,240
2018-03-09T08:15:16.833Z,250
2018-03-09T08:16:25.665Z,250
2018-03-09T08:17:34.819Z,250
2018-03-09T08:18:43.674Z,250
2018-03-09T08:19:52.482Z,245
2018-03-09T08:21:01.317Z,250
2018-03-09T08:22:10.300Z,255
2018-03-09T08:23:19.131Z,250
2018-03-09T08:24:27.974Z,260
2018-03-09T08:25:37.082Z,265
2018-03-09T08:26:46.008Z,265
2018-03-09T08:27:54.795Z,265
2018-03-09T08:29:03.627Z,270
2018-03-09T08:30:12.460Z,270
2018-03-09T08:31:21.295Z,265
2018-03-09T08:32:30.404Z,265
2018-03-09T08:33:39.237Z,255
2018-03-09T08:34:48.367Z,270
2018-03-09T08:35:57.170Z,275
2018-03-09T08:37:06.004Z,285
2018-03-09T08:38:14.832Z,290
2018-03-09T08:39:23.961Z,290
2018-03-09T08:40:33.066Z,295
2018-03-09T08:41:41.903Z,295
2018-03-09T08:42:50.730Z,290
2018-03-09T08:43:59.562Z,290
2018-03-09T08:45:08.433Z,295
2018-03-09T08:46:17.224Z,305
2018-03-09T08:47:26.054Z,305
2018-03-09T08:48:34.884Z,295
2018-03-09T08:49:43.714Z,295
2018-03-09T08:50:52.749Z,315
2018-03-09T08:52:01.531Z,315
2018-03-09T08:53:10.363Z,300
2018-03-09T08:54:19.198Z,330
2018-03-09T08:55:28.304Z,315
2018-03-09T08:56:37.238Z,325
2018-03-09T08:57:46.067Z,325
2018-03-09T08:58:54.898Z,300
2018-03-09T09:00:03.731Z,300
2018-03-09T09:01:12.573Z,300
2018-03-09T09:02:21.734Z,300
2018-03-09T09:03:30.839Z,305
2018-03-09T09:04:39.693Z,315
2018-03-09T09:05:48.505Z,295
2018-03-09T09:06:57.338Z,310
2018-03-09T09:08:06.645Z,325
2018-03-09T09:09:15.477Z,340
2018-03-09T09:10:24.310Z,340
2018-03-09T09:11:33.198Z,345
2018-03-09T09:12:42.310Z,360
2018-03-09T09:13:51.578Z,370
2018-03-09T09:15:00.377Z,370
2018-03-09T09:16:09.482Z,350
2018-03-09T09:17:18.315Z,330
2018-03-09T09:18:27.146Z,340
2018-03-09T09:19:36.278Z,350
2018-03-09T09:20:45.132Z,360
2018-03-09T09:21:54.242Z,350
2018-03-09T09:23:03.350Z,355
2018-03-09T09:24:12.184Z,350
2018-03-09T09:25:21.167Z,330
2018-03-09T09:26:30.308Z,330
2018-03-09T09:27:39.140Z,360
2018-03-09T09:28:47.974Z,390
2018-03-09T09:29:56.809Z,395
2018-03-09T09:31:06.043Z,385
2018-03-09T09:32:14.873Z,370
2018-03-09T09:33:23.704Z,385
2018-03-09T09:34:32.540Z,390
2018-03-09T09:35:41.372Z,405
2018-03-09T09:36:50.356Z,420
2018-03-09T09:37:59.189Z,425
2018-03-09T09:39:08.301Z,425
2018-03-09T09:40:17.414Z,415
2018-03-09T09:41:26.519Z,435
2018-03-09T09:42:35.454Z,435
2018-03-09T09:43:44.284Z,430
2018-03-09T09:44:53.115Z,405
2018-03-09T09:46:01.946Z,410
2018-03-09T09:47:10.779Z,415
2018-03-09T09:48:19.660Z,405
2018-03-09T09:49:28.773Z,420
2018-03-09T09:50:37.604Z,430
2018-03-09T09:51:46.432Z,425
2018-03-09T09:52:55.265Z,440
2018-03-09T09:54:04.096Z,445
2018-03-09T09:55:12.931Z,470
2018-03-09T09:56:21.763Z,480
2018-03-09T09:57:30.598Z,470
2018-03-09T09:58:39.432Z,435
2018-03-09T09:59:48.317Z,435
2018-03-09T10:00:57.158Z,470
2018-03-09T10:02:06.270Z,460
2018-03-09T10:03:15.378Z,460
2018-03-09T10:04:24.489Z,450
2018-03-09T10:05:33.422Z,505
2018-03-09T10:06:42.254Z,470
2018-03-09T10:07:51.088Z,505
2018-03-09T10:08:59.976Z,455
2018-03-09T10:10:08.755Z,460
2018-03-09T10:11:17.739Z,485
2018-03-09T10:12:26.573Z,480
2018-03-09T10:13:35.506Z,515
2018-03-09T10:14:44.366Z,525
2018-03-09T10:15:53.175Z,505
2018-03-09T10:17:02.415Z,490
2018-03-09T10:18:11.249Z,515
2018-03-09T10:19:20.083Z,550
2018-03-09T10:20:28.917Z,585
2018-03-09T10:21:37.797Z,600
2018-03-09T10:22:46.921Z,575
2018-03-09T10:23:55.757Z,575
2018-03-09T10:25:04.595Z,575
2018-03-09T10:26:13.429Z,605
2018-03-09T10:27:22.539Z,555
2018-03-09T10:28:31.522Z,530
2018-03-09T10:29:40.632Z,555
2018-03-09T10:30:49.467Z,570
2018-03-09T10:31:58.307Z,555
2018-03-09T10:33:07.418Z,565
2018-03-09T10:34:16.353Z,585
2018-03-09T10:35:25.186Z,590
2018-03-09T10:36:34.020Z,575
2018-03-09T10:37:42.862Z,580
2018-03-09T10:38:51.696Z,580
2018-03-09T10:40:00.531Z,585
2018-03-09T10:41:09.646Z,575
2018-03-09T10:42:18.482Z,555
2018-03-09T10:43:27.318Z,535
2018-03-09T10:44:36.155Z,535
2018-03-09T10:45:45.290Z,515
2018-03-09T10:46:54.131Z,530
2018-03-09T10:48:02.972Z,485
2018-03-09T10:49:11.809Z,455
2018-03-09T10:50:20.645Z,475
2018-03-09T10:51:29.578Z,430
2018-03-09T10:52:38.412Z,450
2018-03-09T10:53:47.246Z,550
2018-03-09T10:54:56.372Z,585
2018-03-09T10:56:05.207Z,480
2018-03-09T10:57:14.188Z,535
2018-03-09T10:58:23.021Z,565
2018-03-09T10:59:31.854Z,545
2018-03-09T11:00:40.687Z,585
2018-03-09T11:01:49.521Z,600
2018-03-09T11:02:58.407Z,565
2018-03-09T11:04:07.239Z,555
2018-03-09T11:05:16.075Z,575
2018-03-09T11:06:24.913Z,615
2018-03-09T11:07:33.747Z,595
2018-03-09T11:08:43.111Z,450
2018-03-09T11:09:51.946Z,435
2018-03-09T11:11:00.782Z,435
2018-03-09T11:12:09.617Z,380
2018-03-09T11:13:18.450Z,450
2018-03-09T11:14:27.437Z,395
2018-03-09T11:15:36.270Z,450
2018-03-09T11:16:45.106Z,530
2018-03-09T11:17:53.937Z,470
2018-03-09T11:19:02.770Z,515
2018-03-09T11:20:11.605Z,535
2018-03-09T11:21:20.439Z,670
2018-03-09T11:22:29.271Z,645
2018-03-09T11:23:38.104Z,690
2018-03-09T11:24:46.942Z,530
2018-03-09T11:25:56.107Z,690
2018-03-09T11:27:05.186Z,785
2018-03-09T11:28:14.017Z,765
2018-03-09T11:29:22.853Z,690
2018-03-09T11:30:31.687Z,490
2018-03-09T11:31:40.522Z,460
2018-03-09T11:32:49.364Z,530
2018-03-09T11:33:58.192Z,500
2018-03-09T11:35:07.028Z,360
2018-03-09T11:36:15.864Z,290
2018-03-09T11:37:24.850Z,300
2018-03-09T11:38:33.686Z,245
2018-03-09T11:39:42.521Z,150
2018-03-09T11:40:51.354Z,105
2018-03-09T11:42:00.191Z,120
2018-03-09T11:43:09.307Z,205
2018-03-09T11:44:18.142Z,235
2018-03-09T11:45:26.975Z,350
2018-03-09T11:46:35.809Z,385
2018-03-09T11:47:44.643Z,320
2018-03-09T11:48:53.577Z,335
2018-03-09T11:50:02.411Z,315
2018-03-09T11:51:11.252Z,305
2018-03-09T11:52:20.079Z,300
2018-03-09T11:53:29.188Z,310
2018-03-09T11:54:38.271Z,330
2018-03-09T11:55:47.151Z,255
2018-03-09T11:56:55.942Z,300
2018-03-09T11:58:05.331Z,265
2018-03-09T11:59:14.167Z,250
2018-03-09T12:00:23.302Z,245
2018-03-09T12:01:32.138Z,340
2018-03-09T12:02:40.971Z,360
2018-03-09T12:03:49.805Z,455
2018-03-09T12:04:58.638Z,485
2018-03-09T12:06:07.777Z,505
2018-03-09T12:07:16.884Z,470
2018-03-09T12:08:26.009Z,390
2018-03-09T12:09:34.842Z,380
2018-03-09T12:10:43.675Z,420
2018-03-09T12:11:52.808Z,465
2018-03-09T12:13:01.645Z,630
2018-03-09T12:14:10.478Z,515
2018-03-09T12:15:19.312Z,525
2018-03-09T12:16:28.148Z,425
2018-03-09T12:17:37.030Z,435
2018-03-09T12:18:46.140Z,485
2018-03-09T12:19:54.975Z,500
2018-03-09T12:21:03.811Z,420
2018-03-09T12:22:12.646Z,410
2018-03-09T12:23:21.582Z,605
2018-03-09T12:24:30.418Z,415
2018-03-09T12:25:39.254Z,460
2018-03-09T12:26:48.364Z,405
2018-03-09T12:27:57.201Z,425
2018-03-09T12:29:06.035Z,660
2018-03-09T12:30:14.873Z,645
2018-03-09T12:31:23.982Z,850
2018-03-09T12:32:32.822Z,675
2018-03-09T12:33:41.698Z,580
2018-03-09T12:34:50.588Z,485
2018-03-09T12:35:59.418Z,375
2018-03-09T12:37:08.253Z,370
2018-03-09T12:38:17.086Z,420
2018-03-09T12:39:25.923Z,525
2018-03-09T12:40:35.132Z,800
2018-03-09T12:41:43.966Z,640
2018-03-09T12:42:52.801Z,575
2018-03-09T12:44:01.637Z,630
2018-03-09T12:45:10.476Z,800
2018-03-09T12:46:19.468Z,1040
2018-03-09T12:47:28.198Z,1300
2018-03-09T12:48:37.033Z,765
2018-03-09T12:49:45.969Z,680
2018-03-09T12:50:54.807Z,660
2018-03-09T12:52:03.643Z,805
2018-03-09T12:53:12.482Z,720
2018-03-09T12:54:21.317Z,750
2018-03-09T12:55:30.154Z,610
2018-03-09T12:56:38.993Z,470
2018-03-09T12:57:47.883Z,565
2018-03-09T12:58:56.998Z,655
2018-03-09T13:00:05.882Z,655
2018-03-09T13:01:14.673Z,630
2018-03-09T13:02:23.513Z,595
2018-03-09T13:03:32.356Z,500
2018-03-09T13:04:41.192Z,440
2018-03-09T13:05:50.030Z,415
2018-03-09T13:06:58.873Z,770
2018-03-09T13:08:07.984Z,865
2018-03-09T13:09:16.821Z,355
2018-03-09T13:10:25.660Z,515
2018-03-09T13:11:34.496Z,490
2018-03-09T13:12:43.333Z,505
2018-03-09T13:13:52.167Z,520
2018-03-09T13:15:01.005Z,585
2018-03-09T13:16:09.843Z,665
2018-03-09T13:17:18.680Z,690
2018-03-09T13:18:27.514Z,480
2018-03-09T13:19:36.351Z,430
2018-03-09T13:20:45.186Z,385
2018-03-09T13:21:54.049Z,335
2018-03-09T13:23:02.866Z,345
2018-03-09T13:24:12.126Z,395
2018-03-09T13:25:21.241Z,465
2018-03-09T13:26:30.077Z,510
2018-03-09T13:27:39.198Z,515
2018-03-09T13:28:48.031Z,365
2018-03-09T13:29:56.870Z,270
2018-03-09T13:31:05.706Z,265
2018-03-09T13:32:14.544Z,250
2018-03-09T13:33:23.376Z,225
2018-03-09T13:34:32.262Z,185
2018-03-09T13:35:41.099Z,190
2018-03-09T13:36:49.935Z,175
2018-03-09T13:37:59.046Z,220
2018-03-09T13:39:07.880Z,230
2018-03-09T13:40:16.869Z,230
2018-03-09T13:41:25.701Z,250
2018-03-09T13:42:34.582Z,285
2018-03-09T13:43:43.656Z,280
2018-03-09T13:44:52.491Z,300
2018-03-09T13:46:01.756Z,380
2018-03-09T13:47:10.597Z,420
2018-03-09T13:48:19.449Z,960
2018-03-09T13:49:28.286Z,660
2018-03-09T13:50:37.124Z,475
2018-03-09T13:51:46.110Z,435
2018-03-09T13:52:54.961Z,455
2018-03-09T13:54:03.781Z,470
2018-03-09T13:55:12.615Z,975
2018-03-09T13:56:21.450Z,555
2018-03-09T13:57:30.345Z,625
2018-03-09T13:58:39.453Z,390
2018-03-09T13:59:48.848Z,295
2018-03-09T14:00:57.954Z,355
2018-03-09T14:02:06.791Z,205
2018-03-09T14:03:15.672Z,345
2018-03-09T14:04:24.506Z,205
2018-03-09T14:05:33.341Z,245
2018-03-09T14:06:42.474Z,225
2018-03-09T14:07:51.308Z,175
2018-03-09T14:09:00.294Z,185
2018-03-09T14:10:09.134Z,375
2018-03-09T14:11:17.980Z,455
2018-03-09T14:12:27.103Z,400
2018-03-09T14:13:35.937Z,360
2018-03-09T14:14:44.924Z,345
2018-03-09T14:15:53.834Z,330
2018-03-09T14:17:02.670Z,325
2018-03-09T14:18:11.563Z,360
2018-03-09T14:19:20.407Z,345
2018-03-09T14:20:29.476Z,350
2018-03-09T14:21:38.276Z,385
2018-03-09T14:22:47.115Z,440
2018-03-09T14:23:55.952Z,460
2018-03-09T14:25:05.064Z,500
2018-03-09T14:26:14.200Z,530
2018-03-09T14:27:23.040Z,430
2018-03-09T14:28:31.875Z,370
2018-03-09T14:29:40.736Z,325
2018-03-09T14:30:49.546Z,295
2018-03-09T14:31:58.530Z,285
2018-03-09T14:33:07.366Z,325
2018-03-09T14:34:16.201Z,225
2018-03-09T14:35:25.038Z,210
2018-03-09T14:36:33.973Z,215
2018-03-09T14:37:43.214Z,225
2018-03-09T14:38:52.051Z,255
2018-03-09T14:40:00.885Z,225
2018-03-09T14:41:09.719Z,205
2018-03-09T14:42:18.557Z,190
2018-03-09T14:43:27.393Z,185
2018-03-09T14:44:36.229Z,240
2018-03-09T14:45:45.070Z,600
2018-03-09T14:46:53.915Z,625
2018-03-09T14:48:02.766Z,745
2018-03-09T14:49:11.711Z,650
2018-03-09T14:50:20.559Z,380
2018-03-09T14:51:29.396Z,295
2018-03-09T14:52:38.242Z,270
2018-03-09T14:53:47.079Z,255
2018-03-09T14:54:56.066Z,250
2018-03-09T14:56:04.899Z,240
2018-03-09T14:57:13.731Z,225
2018-03-09T14:58:22.617Z,205
2018-03-09T14:59:31.400Z,190
2018-03-09T15:00:40.385Z,175
2018-03-09T15:01:49.222Z,170
2018-03-09T15:02:58.072Z,150
2018-03-09T15:04:06.907Z,130
2018-03-09T15:05:15.742Z,130
2018-03-09T15:06:24.627Z,125
2018-03-09T15:07:33.466Z,135
2018-03-09T15:08:42.576Z,140
2018-03-09T15:09:51.410Z,150
2018-03-09T15:11:00.248Z,170
2018-03-09T15:12:09.230Z,190
2018-03-09T15:13:18.064Z,165
2018-03-09T15:14:26.896Z,170
2018-03-09T15:15:35.737Z,185
2018-03-09T15:16:44.568Z,190
2018-03-09T15:17:53.553Z,190
2018-03-09T15:19:02.664Z,215
2018-03-09T15:20:11.501Z,245
2018-03-09T15:21:20.335Z,265
2018-03-09T15:22:29.168Z,300
2018-03-09T15:23:38.003Z,310
2018-03-09T15:24:46.847Z,300
2018-03-09T15:25:55.684Z,290
2018-03-09T15:27:04.515Z,290
2018-03-09T15:28:13.352Z,265
2018-03-09T15:29:22.525Z,260
2018-03-09T15:30:31.362Z,255
2018-03-09T15:31:40.266Z,250
2018-03-09T15:32:49.104Z,235
2018-03-09T15:33:57.943Z,235
2018-03-09T15:35:06.780Z,225
2018-03-09T15:36:15.615Z,210
2018-03-09T15:37:24.448Z,195
2018-03-09T15:38:33.282Z,175
2018-03-09T15:39:42.115Z,150
2018-03-09T15:40:50.949Z,130
2018-03-09T15:41:59.783Z,115
2018-03-09T15:43:08.616Z,100
2018-03-09T15:44:17.449Z,95
2018-03-09T15:45:26.281Z,95
2018-03-09T15:46:35.572Z,100
2018-03-09T15:47:44.375Z,105
2018-03-09T15:48:53.213Z,100
2018-03-09T15:50:02.049Z,100
2018-03-09T15:51:10.880Z,100
2018-03-09T15:52:19.862Z,100
2018-03-09T15:53:28.700Z,100
2018-03-09T15:54:37.530Z,100
2018-03-09T15:55:46.361Z,105
2018-03-09T15:56:55.201Z,105
2018-03-09T15:58:04.033Z,100
2018-03-09T15:59:13.143Z,95
2018-03-09T16:00:21.978Z,90
2018-03-09T16:01:30.815Z,90
2018-03-09T16:02:39.650Z,95
2018-03-09T16:03:48.584Z,105
2018-03-09T16:04:57.416Z,110
2018-03-09T16:06:06.251Z,110
2018-03-09T16:07:15.084Z,110
2018-03-09T16:08:23.919Z,110
2018-03-09T16:09:32.853Z,115
2018-03-09T16:10:41.687Z,110
2018-03-09T16:11:50.793Z,105
2018-03-09T16:12:59.628Z,105
2018-03-09T16:14:08.459Z,105
2018-03-09T16:15:17.494Z,105